This is the latest recevied weather packets stored in our database for station/object HS2LXA-WX. If no packets are shown the sender has not sent any weather packets the latest 10 day(s).
| Time | Temp. | Humidity | Pressure | Rain* | Wind** | Luminosity | Snow |
|---|---|---|---|---|---|---|---|
| 1778170783 | 30.56° C | 84% | 1013.1 hPa | 0 mm | - | - | - |
| 1778170138 | 30° C | 84% | 1013.2 hPa | 0 mm | - | - | - |
| 1778166670 | 30.56° C | 83% | 1013.1 hPa | 0 mm | - | - | - |
| 1778166069 | 30° C | 85% | 1013.1 hPa | 0 mm | - | - | - |
| 1778165035 | 30.56° C | 80% | 1013.1 hPa | 0 mm | - | - | - |
| 1778164430 | 30.56° C | 78% | 1013.1 hPa | 0 mm | - | - | - |
| 1778163830 | 30° C | 82% | 1013.2 hPa | 0 mm | - | - | - |
| 1778163032 | 30° C | 82% | 1013.2 hPa | 0 mm | - | - | - |
| 1778162433 | 30° C | 80% | 1013.1 hPa | 0 mm | - | - | - |
| 1778161344 | 30.56° C | 80% | 1013.1 hPa | 0 mm | - | - | - |
| 1778160742 | 30.56° C | 81% | 1013.2 hPa | 0 mm | - | - | - |
| 1778160142 | 30.56° C | 79% | 1013.2 hPa | 0 mm | - | - | - |
| 1778159542 | 30.56° C | 79% | 1013.2 hPa | 0 mm | - | - | - |
| 1778158793 | 31.11° C | 79% | 1013.1 hPa | 0 mm | - | - | - |
| 1778158010 | 31.11° C | 76% | 1013.2 hPa | 0 mm | - | - | - |
| 1778157410 | 31.11° C | 77% | 1013.1 hPa | 0 mm | - | - | - |
| 1778156811 | 31.67° C | 75% | 1013.2 hPa | 0 mm | - | - | - |
| 1778154900 | 31.67° C | 74% | 1013.2 hPa | 0 mm | - | - | - |
| 1778153541 | 31.67° C | 73% | 1013.1 hPa | 0 mm | - | - | - |
| 1778152675 | 32.22° C | 72% | 1013.1 hPa | 0 mm | - | - | - |
| 1778152073 | 31.67° C | 73% | 1013.1 hPa | 0 mm | - | - | - |
| 1778151472 | 32.22° C | 71% | 1013.2 hPa | 0 mm | - | - | - |
| 1778150875 | 32.22° C | 72% | 1013.2 hPa | 0 mm | - | - | - |
| 1778150204 | 32.22° C | 74% | 1013.1 hPa | 0 mm | - | - | - |
| 1778149604 | 32.22° C | 72% | 1013.2 hPa | 0 mm | - | - | - |
* Rain latest hour (hover to see other rain measurements)
** Current wind speed in m/s (hover to see current wind gust speed)